sensor_id;sensor_type;location;lat;lon;timestamp;P1;durP1;ratioP1;P2;durP2;ratioP2
19251;SDS011;9760;50.944;5.304;2023-06-19T00:00:08;6.40;;;4.20;;
19251;SDS011;9760;50.944;5.304;2023-06-19T00:02:39;6.47;;;3.80;;
19251;SDS011;9760;50.944;5.304;2023-06-19T00:05:05;10.23;;;5.13;;
19251;SDS011;9760;50.944;5.304;2023-06-19T00:07:31;6.40;;;4.17;;
19251;SDS011;9760;50.944;5.304;2023-06-19T00:09:57;6.87;;;4.13;;
19251;SDS011;9760;50.944;5.304;2023-06-19T00:12:22;8.07;;;4.60;;
19251;SDS011;9760;50.944;5.304;2023-06-19T00:14:48;9.37;;;4.37;;
19251;SDS011;9760;50.944;5.304;2023-06-19T00:17:13;6.10;;;3.97;;
19251;SDS011;9760;50.944;5.304;2023-06-19T00:19:41;6.20;;;3.87;;
19251;SDS011;9760;50.944;5.304;2023-06-19T00:22:08;8.20;;;4.00;;
19251;SDS011;9760;50.944;5.304;2023-06-19T00:24:34;6.30;;;3.80;;
19251;SDS011;9760;50.944;5.304;2023-06-19T00:26:59;7.43;;;4.03;;
19251;SDS011;9760;50.944;5.304;2023-06-19T00:29:31;6.13;;;4.07;;
19251;SDS011;9760;50.944;5.304;2023-06-19T00:31:58;7.60;;;4.00;;
19251;SDS011;9760;50.944;5.304;2023-06-19T00:34:24;9.00;;;4.00;;
19251;SDS011;9760;50.944;5.304;2023-06-19T00:36:50;5.77;;;3.97;;
19251;SDS011;9760;50.944;5.304;2023-06-19T00:39:21;8.07;;;4.70;;
19251;SDS011;9760;50.944;5.304;2023-06-19T00:41:47;9.30;;;3.97;;
19251;SDS011;9760;50.944;5.304;2023-06-19T00:44:13;8.33;;;4.03;;
19251;SDS011;9760;50.944;5.304;2023-06-19T00:46:40;5.53;;;3.47;;
19251;SDS011;9760;50.944;5.304;2023-06-19T00:49:06;8.97;;;4.07;;
19251;SDS011;9760;50.944;5.304;2023-06-19T00:51:34;9.77;;;3.63;;
19251;SDS011;9760;50.944;5.304;2023-06-19T00:54:00;7.60;;;3.90;;
19251;SDS011;9760;50.944;5.304;2023-06-19T00:56:26;6.43;;;4.03;;
19251;SDS011;9760;50.944;5.304;2023-06-19T00:58:52;6.40;;;4.07;;
19251;SDS011;9760;50.944;5.304;2023-06-19T01:01:21;8.30;;;3.60;;
19251;SDS011;9760;50.944;5.304;2023-06-19T01:03:49;5.30;;;3.73;;
19251;SDS011;9760;50.944;5.304;2023-06-19T01:06:15;9.37;;;3.73;;
19251;SDS011;9760;50.944;5.304;2023-06-19T01:08:56;5.47;;;3.77;;
19251;SDS011;9760;50.944;5.304;2023-06-19T01:11:23;5.17;;;3.73;;
19251;SDS011;9760;50.944;5.304;2023-06-19T01:13:58;5.83;;;3.83;;
19251;SDS011;9760;50.944;5.304;2023-06-19T01:16:26;7.93;;;3.57;;
19251;SDS011;9760;50.944;5.304;2023-06-19T01:18:53;5.37;;;3.73;;
19251;SDS011;9760;50.944;5.304;2023-06-19T01:21:19;5.67;;;3.53;;
19251;SDS011;9760;50.944;5.304;2023-06-19T01:23:45;4.80;;;3.40;;
19251;SDS011;9760;50.944;5.304;2023-06-19T01:26:12;5.63;;;3.97;;
19251;SDS011;9760;50.944;5.304;2023-06-19T01:28:38;4.23;;;3.10;;
19251;SDS011;9760;50.944;5.304;2023-06-19T01:31:08;5.80;;;3.70;;
19251;SDS011;9760;50.944;5.304;2023-06-19T01:33:40;5.47;;;3.50;;
19251;SDS011;9760;50.944;5.304;2023-06-19T01:36:08;4.67;;;3.20;;
19251;SDS011;9760;50.944;5.304;2023-06-19T01:38:35;6.53;;;3.60;;
19251;SDS011;9760;50.944;5.304;2023-06-19T01:41:02;8.03;;;3.70;;
19251;SDS011;9760;50.944;5.304;2023-06-19T01:43:30;5.40;;;3.27;;
19251;SDS011;9760;50.944;5.304;2023-06-19T01:45:57;5.43;;;3.53;;
19251;SDS011;9760;50.944;5.304;2023-06-19T01:48:23;7.03;;;3.60;;
19251;SDS011;9760;50.944;5.304;2023-06-19T01:50:49;6.70;;;3.40;;
19251;SDS011;9760;50.944;5.304;2023-06-19T01:53:16;8.57;;;3.20;;
19251;SDS011;9760;50.944;5.304;2023-06-19T01:55:41;7.87;;;3.03;;
19251;SDS011;9760;50.944;5.304;2023-06-19T01:58:07;10.67;;;3.57;;
19251;SDS011;9760;50.944;5.304;2023-06-19T02:00:33;10.70;;;3.50;;
19251;SDS011;9760;50.944;5.304;2023-06-19T02:03:02;14.33;;;3.30;;
19251;SDS011;9760;50.944;5.304;2023-06-19T02:05:30;8.07;;;3.10;;
19251;SDS011;9760;50.944;5.304;2023-06-19T02:07:56;9.10;;;3.13;;
19251;SDS011;9760;50.944;5.304;2023-06-19T02:10:22;8.63;;;3.47;;
19251;SDS011;9760;50.944;5.304;2023-06-19T02:12:48;6.37;;;3.60;;
19251;SDS011;9760;50.944;5.304;2023-06-19T02:15:13;6.97;;;3.20;;
19251;SDS011;9760;50.944;5.304;2023-06-19T02:17:39;5.73;;;3.10;;
19251;SDS011;9760;50.944;5.304;2023-06-19T02:20:07;6.53;;;3.07;;
19251;SDS011;9760;50.944;5.304;2023-06-19T02:22:34;5.40;;;3.30;;
19251;SDS011;9760;50.944;5.304;2023-06-19T02:25:00;4.63;;;3.40;;
19251;SDS011;9760;50.944;5.304;2023-06-19T02:27:26;8.77;;;2.80;;
19251;SDS011;9760;50.944;5.304;2023-06-19T02:29:51;9.27;;;3.10;;
19251;SDS011;9760;50.944;5.304;2023-06-19T02:32:17;10.53;;;3.70;;
19251;SDS011;9760;50.944;5.304;2023-06-19T02:34:43;6.23;;;3.13;;
19251;SDS011;9760;50.944;5.304;2023-06-19T02:37:09;6.00;;;3.17;;
19251;SDS011;9760;50.944;5.304;2023-06-19T02:39:35;6.43;;;2.80;;
19251;SDS011;9760;50.944;5.304;2023-06-19T02:42:00;6.50;;;3.10;;
19251;SDS011;9760;50.944;5.304;2023-06-19T02:44:26;7.20;;;2.97;;
19251;SDS011;9760;50.944;5.304;2023-06-19T02:46:52;5.53;;;3.00;;
19251;SDS011;9760;50.944;5.304;2023-06-19T02:49:17;7.27;;;3.17;;
19251;SDS011;9760;50.944;5.304;2023-06-19T02:51:43;6.67;;;3.20;;
19251;SDS011;9760;50.944;5.304;2023-06-19T02:54:08;10.07;;;3.17;;
19251;SDS011;9760;50.944;5.304;2023-06-19T02:56:34;5.47;;;3.40;;
19251;SDS011;9760;50.944;5.304;2023-06-19T02:59:00;6.53;;;3.77;;
19251;SDS011;9760;50.944;5.304;2023-06-19T03:01:25;7.00;;;3.37;;
19251;SDS011;9760;50.944;5.304;2023-06-19T03:03:51;6.43;;;3.30;;
19251;SDS011;9760;50.944;5.304;2023-06-19T03:06:17;9.60;;;3.67;;
19251;SDS011;9760;50.944;5.304;2023-06-19T03:08:43;6.20;;;3.20;;
19251;SDS011;9760;50.944;5.304;2023-06-19T03:11:09;5.83;;;3.23;;
19251;SDS011;9760;50.944;5.304;2023-06-19T03:13:46;5.57;;;3.07;;
19251;SDS011;9760;50.944;5.304;2023-06-19T03:16:13;6.20;;;3.37;;
19251;SDS011;9760;50.944;5.304;2023-06-19T03:18:42;5.73;;;3.40;;
19251;SDS011;9760;50.944;5.304;2023-06-19T03:21:10;12.10;;;3.47;;
19251;SDS011;9760;50.944;5.304;2023-06-19T03:23:36;8.97;;;3.20;;
19251;SDS011;9760;50.944;5.304;2023-06-19T03:26:02;7.83;;;2.97;;
19251;SDS011;9760;50.944;5.304;2023-06-19T03:28:28;5.77;;;2.67;;
19251;SDS011;9760;50.944;5.304;2023-06-19T03:30:54;6.17;;;3.30;;
19251;SDS011;9760;50.944;5.304;2023-06-19T03:33:20;5.50;;;3.33;;
19251;SDS011;9760;50.944;5.304;2023-06-19T03:35:45;6.10;;;3.67;;
19251;SDS011;9760;50.944;5.304;2023-06-19T03:38:11;10.23;;;3.80;;
19251;SDS011;9760;50.944;5.304;2023-06-19T03:40:37;9.67;;;3.20;;
19251;SDS011;9760;50.944;5.304;2023-06-19T03:43:02;6.47;;;3.17;;
19251;SDS011;9760;50.944;5.304;2023-06-19T03:45:28;9.97;;;3.50;;
19251;SDS011;9760;50.944;5.304;2023-06-19T03:47:53;5.80;;;3.30;;
19251;SDS011;9760;50.944;5.304;2023-06-19T03:50:19;8.10;;;3.23;;
19251;SDS011;9760;50.944;5.304;2023-06-19T03:52:45;7.57;;;3.23;;
19251;SDS011;9760;50.944;5.304;2023-06-19T03:55:10;6.10;;;3.17;;
19251;SDS011;9760;50.944;5.304;2023-06-19T03:57:36;5.97;;;3.30;;
19251;SDS011;9760;50.944;5.304;2023-06-19T04:00:02;7.10;;;3.20;;
19251;SDS011;9760;50.944;5.304;2023-06-19T04:02:32;16.30;;;3.77;;
19251;SDS011;9760;50.944;5.304;2023-06-19T04:05:01;8.57;;;3.90;;
19251;SDS011;9760;50.944;5.304;2023-06-19T04:07:27;5.30;;;3.37;;
19251;SDS011;9760;50.944;5.304;2023-06-19T04:09:53;5.90;;;3.50;;
19251;SDS011;9760;50.944;5.304;2023-06-19T04:12:19;6.60;;;3.93;;
19251;SDS011;9760;50.944;5.304;2023-06-19T04:14:44;6.43;;;3.60;;
19251;SDS011;9760;50.944;5.304;2023-06-19T04:17:10;6.03;;;3.67;;
19251;SDS011;9760;50.944;5.304;2023-06-19T04:19:36;6.50;;;3.90;;
19251;SDS011;9760;50.944;5.304;2023-06-19T04:22:01;7.57;;;4.03;;
19251;SDS011;9760;50.944;5.304;2023-06-19T04:24:27;9.00;;;3.70;;
19251;SDS011;9760;50.944;5.304;2023-06-19T04:26:52;8.10;;;4.03;;
19251;SDS011;9760;50.944;5.304;2023-06-19T04:29:18;6.43;;;3.77;;
19251;SDS011;9760;50.944;5.304;2023-06-19T04:31:44;13.17;;;4.70;;
19251;SDS011;9760;50.944;5.304;2023-06-19T04:34:12;7.73;;;4.13;;
19251;SDS011;9760;50.944;5.304;2023-06-19T04:36:40;6.37;;;4.80;;
19251;SDS011;9760;50.944;5.304;2023-06-19T04:39:06;9.97;;;5.07;;
19251;SDS011;9760;50.944;5.304;2023-06-19T04:41:32;9.03;;;5.00;;
19251;SDS011;9760;50.944;5.304;2023-06-19T04:43:57;9.90;;;5.80;;
19251;SDS011;9760;50.944;5.304;2023-06-19T04:46:23;11.30;;;5.33;;
19251;SDS011;9760;50.944;5.304;2023-06-19T04:48:49;9.87;;;5.73;;
19251;SDS011;9760;50.944;5.304;2023-06-19T04:51:17;15.17;;;5.80;;
19251;SDS011;9760;50.944;5.304;2023-06-19T04:53:46;11.73;;;6.30;;
19251;SDS011;9760;50.944;5.304;2023-06-19T04:56:13;12.27;;;6.37;;
19251;SDS011;9760;50.944;5.304;2023-06-19T04:58:40;10.90;;;6.47;;
19251;SDS011;9760;50.944;5.304;2023-06-19T05:01:13;12.80;;;6.13;;
19251;SDS011;9760;50.944;5.304;2023-06-19T05:03:39;15.00;;;7.40;;
19251;SDS011;9760;50.944;5.304;2023-06-19T05:06:06;15.23;;;6.73;;
19251;SDS011;9760;50.944;5.304;2023-06-19T05:08:32;9.73;;;6.93;;
19251;SDS011;9760;50.944;5.304;2023-06-19T05:10:57;16.23;;;8.00;;
19251;SDS011;9760;50.944;5.304;2023-06-19T05:13:23;13.70;;;7.27;;
19251;SDS011;9760;50.944;5.304;2023-06-19T05:15:49;10.90;;;6.90;;
19251;SDS011;9760;50.944;5.304;2023-06-19T05:18:15;11.77;;;7.00;;
19251;SDS011;9760;50.944;5.304;2023-06-19T05:20:41;11.60;;;6.70;;
19251;SDS011;9760;50.944;5.304;2023-06-19T05:23:08;11.37;;;6.97;;
19251;SDS011;9760;50.944;5.304;2023-06-19T05:25:33;14.77;;;7.57;;
19251;SDS011;9760;50.944;5.304;2023-06-19T05:27:59;12.80;;;7.67;;
19251;SDS011;9760;50.944;5.304;2023-06-19T05:30:25;14.17;;;7.50;;
19251;SDS011;9760;50.944;5.304;2023-06-19T05:32:50;13.63;;;7.70;;
19251;SDS011;9760;50.944;5.304;2023-06-19T05:35:16;14.10;;;7.77;;
19251;SDS011;9760;50.944;5.304;2023-06-19T05:37:42;11.53;;;7.43;;
19251;SDS011;9760;50.944;5.304;2023-06-19T05:40:10;11.40;;;7.57;;
19251;SDS011;9760;50.944;5.304;2023-06-19T05:42:36;13.83;;;8.20;;
19251;SDS011;9760;50.944;5.304;2023-06-19T05:45:05;11.17;;;7.63;;
19251;SDS011;9760;50.944;5.304;2023-06-19T05:47:31;13.63;;;7.67;;
19251;SDS011;9760;50.944;5.304;2023-06-19T05:49:57;14.93;;;7.70;;
19251;SDS011;9760;50.944;5.304;2023-06-19T05:52:23;9.83;;;6.20;;
19251;SDS011;9760;50.944;5.304;2023-06-19T05:54:49;15.87;;;6.93;;
19251;SDS011;9760;50.944;5.304;2023-06-19T05:57:15;10.20;;;5.87;;
19251;SDS011;9760;50.944;5.304;2023-06-19T05:59:41;12.70;;;6.00;;
19251;SDS011;9760;50.944;5.304;2023-06-19T06:02:07;10.70;;;5.80;;
19251;SDS011;9760;50.944;5.304;2023-06-19T06:04:33;8.40;;;5.80;;
19251;SDS011;9760;50.944;5.304;2023-06-19T06:07:02;12.63;;;5.17;;
19251;SDS011;9760;50.944;5.304;2023-06-19T06:09:27;6.63;;;5.10;;
19251;SDS011;9760;50.944;5.304;2023-06-19T06:11:53;9.60;;;5.33;;
19251;SDS011;9760;50.944;5.304;2023-06-19T06:14:18;12.43;;;5.43;;
19251;SDS011;9760;50.944;5.304;2023-06-19T06:16:44;10.10;;;5.50;;
19251;SDS011;9760;50.944;5.304;2023-06-19T06:19:10;7.97;;;5.20;;
19251;SDS011;9760;50.944;5.304;2023-06-19T06:21:35;8.20;;;5.03;;
19251;SDS011;9760;50.944;5.304;2023-06-19T06:24:01;10.90;;;5.70;;
19251;SDS011;9760;50.944;5.304;2023-06-19T06:26:27;12.53;;;5.93;;
19251;SDS011;9760;50.944;5.304;2023-06-19T06:28:53;9.03;;;5.50;;
19251;SDS011;9760;50.944;5.304;2023-06-19T06:31:21;9.33;;;5.57;;
19251;SDS011;9760;50.944;5.304;2023-06-19T06:33:47;8.77;;;5.30;;
19251;SDS011;9760;50.944;5.304;2023-06-19T06:36:14;12.83;;;6.70;;
19251;SDS011;9760;50.944;5.304;2023-06-19T06:38:40;10.07;;;5.73;;
19251;SDS011;9760;50.944;5.304;2023-06-19T06:41:06;18.30;;;6.23;;
19251;SDS011;9760;50.944;5.304;2023-06-19T06:43:33;10.30;;;6.27;;
19251;SDS011;9760;50.944;5.304;2023-06-19T06:45:59;14.60;;;6.27;;
19251;SDS011;9760;50.944;5.304;2023-06-19T06:48:24;11.07;;;6.00;;
19251;SDS011;9760;50.944;5.304;2023-06-19T06:50:50;12.33;;;6.37;;
19251;SDS011;9760;50.944;5.304;2023-06-19T06:53:17;12.13;;;6.50;;
19251;SDS011;9760;50.944;5.304;2023-06-19T06:55:43;13.70;;;6.70;;
19251;SDS011;9760;50.944;5.304;2023-06-19T06:58:08;9.37;;;5.70;;
19251;SDS011;9760;50.944;5.304;2023-06-19T07:00:34;16.30;;;7.97;;
19251;SDS011;9760;50.944;5.304;2023-06-19T07:03:00;10.80;;;6.17;;
19251;SDS011;9760;50.944;5.304;2023-06-19T07:05:26;12.10;;;6.53;;
19251;SDS011;9760;50.944;5.304;2023-06-19T07:07:54;8.03;;;6.27;;
19251;SDS011;9760;50.944;5.304;2023-06-19T07:10:19;7.33;;;5.47;;
19251;SDS011;9760;50.944;5.304;2023-06-19T07:12:48;8.80;;;5.93;;
19251;SDS011;9760;50.944;5.304;2023-06-19T07:15:14;8.87;;;5.70;;
19251;SDS011;9760;50.944;5.304;2023-06-19T07:17:39;9.90;;;6.13;;
19251;SDS011;9760;50.944;5.304;2023-06-19T07:20:05;11.00;;;5.40;;
19251;SDS011;9760;50.944;5.304;2023-06-19T07:22:31;10.20;;;5.63;;
19251;SDS011;9760;50.944;5.304;2023-06-19T07:24:57;8.50;;;6.00;;
19251;SDS011;9760;50.944;5.304;2023-06-19T07:27:23;9.03;;;6.03;;
19251;SDS011;9760;50.944;5.304;2023-06-19T07:29:52;8.87;;;6.37;;
19251;SDS011;9760;50.944;5.304;2023-06-19T07:32:18;11.10;;;6.87;;
19251;SDS011;9760;50.944;5.304;2023-06-19T07:34:44;10.03;;;6.43;;
19251;SDS011;9760;50.944;5.304;2023-06-19T07:37:10;10.30;;;6.47;;
19251;SDS011;9760;50.944;5.304;2023-06-19T07:39:42;11.73;;;6.63;;
19251;SDS011;9760;50.944;5.304;2023-06-19T07:42:12;9.07;;;6.43;;
19251;SDS011;9760;50.944;5.304;2023-06-19T07:44:39;13.20;;;6.47;;
19251;SDS011;9760;50.944;5.304;2023-06-19T07:47:05;13.63;;;7.00;;
19251;SDS011;9760;50.944;5.304;2023-06-19T07:49:31;17.40;;;7.60;;
19251;SDS011;9760;50.944;5.304;2023-06-19T07:51:57;10.67;;;7.53;;
19251;SDS011;9760;50.944;5.304;2023-06-19T07:54:23;11.93;;;7.13;;
19251;SDS011;9760;50.944;5.304;2023-06-19T07:56:48;13.93;;;7.97;;
19251;SDS011;9760;50.944;5.304;2023-06-19T07:59:14;13.33;;;7.13;;
19251;SDS011;9760;50.944;5.304;2023-06-19T08:01:40;13.23;;;6.97;;
19251;SDS011;9760;50.944;5.304;2023-06-19T08:04:06;15.60;;;8.03;;
19251;SDS011;9760;50.944;5.304;2023-06-19T08:06:31;9.67;;;7.30;;
19251;SDS011;9760;50.944;5.304;2023-06-19T08:08:57;13.10;;;7.10;;
19251;SDS011;9760;50.944;5.304;2023-06-19T08:11:23;18.10;;;7.60;;
19251;SDS011;9760;50.944;5.304;2023-06-19T08:13:49;13.07;;;7.30;;
19251;SDS011;9760;50.944;5.304;2023-06-19T08:16:15;18.10;;;7.00;;
19251;SDS011;9760;50.944;5.304;2023-06-19T08:18:40;9.10;;;7.13;;
19251;SDS011;9760;50.944;5.304;2023-06-19T08:21:07;12.60;;;7.37;;
19251;SDS011;9760;50.944;5.304;2023-06-19T08:23:33;12.53;;;7.77;;
19251;SDS011;9760;50.944;5.304;2023-06-19T08:25:58;8.50;;;6.47;;
19251;SDS011;9760;50.944;5.304;2023-06-19T08:28:24;15.03;;;7.77;;
19251;SDS011;9760;50.944;5.304;2023-06-19T08:30:49;10.47;;;7.20;;
19251;SDS011;9760;50.944;5.304;2023-06-19T08:33:15;12.93;;;6.90;;
19251;SDS011;9760;50.944;5.304;2023-06-19T08:35:41;10.47;;;7.23;;
19251;SDS011;9760;50.944;5.304;2023-06-19T08:38:06;22.87;;;7.30;;
19251;SDS011;9760;50.944;5.304;2023-06-19T08:40:32;10.20;;;5.73;;
19251;SDS011;9760;50.944;5.304;2023-06-19T08:42:58;7.97;;;5.60;;
19251;SDS011;9760;50.944;5.304;2023-06-19T08:45:26;8.90;;;5.83;;
19251;SDS011;9760;50.944;5.304;2023-06-19T08:47:59;7.73;;;5.10;;
19251;SDS011;9760;50.944;5.304;2023-06-19T08:50:25;11.40;;;4.97;;
19251;SDS011;9760;50.944;5.304;2023-06-19T08:52:51;7.33;;;4.23;;
19251;SDS011;9760;50.944;5.304;2023-06-19T08:55:17;12.17;;;4.30;;
19251;SDS011;9760;50.944;5.304;2023-06-19T08:57:42;7.93;;;4.57;;
19251;SDS011;9760;50.944;5.304;2023-06-19T09:00:08;7.93;;;4.87;;
19251;SDS011;9760;50.944;5.304;2023-06-19T09:02:38;8.50;;;4.70;;
19251;SDS011;9760;50.944;5.304;2023-06-19T09:05:10;10.30;;;4.57;;
19251;SDS011;9760;50.944;5.304;2023-06-19T09:07:39;8.83;;;5.53;;
19251;SDS011;9760;50.944;5.304;2023-06-19T09:10:15;9.63;;;5.00;;
19251;SDS011;9760;50.944;5.304;2023-06-19T09:12:43;11.50;;;5.20;;
19251;SDS011;9760;50.944;5.304;2023-06-19T09:15:12;11.43;;;5.30;;
19251;SDS011;9760;50.944;5.304;2023-06-19T09:17:39;11.07;;;5.97;;
19251;SDS011;9760;50.944;5.304;2023-06-19T09:20:05;12.17;;;6.13;;
19251;SDS011;9760;50.944;5.304;2023-06-19T09:22:32;11.30;;;5.47;;
19251;SDS011;9760;50.944;5.304;2023-06-19T09:25:01;11.80;;;5.07;;
19251;SDS011;9760;50.944;5.304;2023-06-19T09:27:33;14.73;;;5.73;;
19251;SDS011;9760;50.944;5.304;2023-06-19T09:29:59;9.47;;;4.97;;
19251;SDS011;9760;50.944;5.304;2023-06-19T09:32:26;10.90;;;6.10;;
19251;SDS011;9760;50.944;5.304;2023-06-19T09:34:54;10.80;;;4.87;;
19251;SDS011;9760;50.944;5.304;2023-06-19T09:37:22;6.73;;;4.87;;
19251;SDS011;9760;50.944;5.304;2023-06-19T09:40:13;11.23;;;5.43;;
19251;SDS011;9760;50.944;5.304;2023-06-19T09:42:40;11.33;;;5.47;;
19251;SDS011;9760;50.944;5.304;2023-06-19T09:45:08;11.00;;;5.23;;
19251;SDS011;9760;50.944;5.304;2023-06-19T09:50:03;9.07;;;5.20;;
19251;SDS011;9760;50.944;5.304;2023-06-19T09:52:29;7.83;;;5.37;;
19251;SDS011;9760;50.944;5.304;2023-06-19T09:54:56;9.73;;;4.57;;
19251;SDS011;9760;50.944;5.304;2023-06-19T09:57:22;8.97;;;4.80;;
19251;SDS011;9760;50.944;5.304;2023-06-19T09:59:55;7.83;;;4.47;;
19251;SDS011;9760;50.944;5.304;2023-06-19T10:02:22;11.00;;;4.77;;
19251;SDS011;9760;50.944;5.304;2023-06-19T10:04:51;9.07;;;5.10;;
19251;SDS011;9760;50.944;5.304;2023-06-19T10:07:22;9.67;;;5.07;;
19251;SDS011;9760;50.944;5.304;2023-06-19T10:10:07;7.47;;;4.10;;
19251;SDS011;9760;50.944;5.304;2023-06-19T10:12:38;6.70;;;4.03;;
19251;SDS011;9760;50.944;5.304;2023-06-19T10:15:08;7.80;;;4.80;;
19251;SDS011;9760;50.944;5.304;2023-06-19T10:17:47;13.57;;;5.07;;
19251;SDS011;9760;50.944;5.304;2023-06-19T10:20:24;19.93;;;5.60;;
19251;SDS011;9760;50.944;5.304;2023-06-19T10:22:55;7.60;;;4.97;;
19251;SDS011;9760;50.944;5.304;2023-06-19T10:25:23;8.50;;;4.80;;
19251;SDS011;9760;50.944;5.304;2023-06-19T10:27:52;8.47;;;5.00;;
19251;SDS011;9760;50.944;5.304;2023-06-19T10:30:19;10.90;;;5.00;;
19251;SDS011;9760;50.944;5.304;2023-06-19T10:32:46;8.43;;;4.53;;
19251;SDS011;9760;50.944;5.304;2023-06-19T10:35:12;6.87;;;4.83;;
19251;SDS011;9760;50.944;5.304;2023-06-19T10:37:39;7.73;;;4.90;;
19251;SDS011;9760;50.944;5.304;2023-06-19T10:40:05;7.80;;;5.33;;
19251;SDS011;9760;50.944;5.304;2023-06-19T10:42:38;12.17;;;4.87;;
19251;SDS011;9760;50.944;5.304;2023-06-19T10:45:06;12.73;;;5.13;;
19251;SDS011;9760;50.944;5.304;2023-06-19T10:47:37;12.77;;;5.13;;
19251;SDS011;9760;50.944;5.304;2023-06-19T10:50:04;11.23;;;4.90;;
19251;SDS011;9760;50.944;5.304;2023-06-19T10:52:35;10.10;;;5.00;;
19251;SDS011;9760;50.944;5.304;2023-06-19T10:55:01;10.13;;;4.90;;
19251;SDS011;9760;50.944;5.304;2023-06-19T10:57:31;12.13;;;5.17;;
19251;SDS011;9760;50.944;5.304;2023-06-19T10:59:57;10.50;;;5.40;;
19251;SDS011;9760;50.944;5.304;2023-06-19T11:02:23;10.97;;;5.03;;
19251;SDS011;9760;50.944;5.304;2023-06-19T11:04:53;9.80;;;5.13;;
19251;SDS011;9760;50.944;5.304;2023-06-19T11:07:22;11.67;;;5.53;;
19251;SDS011;9760;50.944;5.304;2023-06-19T11:09:51;7.83;;;5.30;;
19251;SDS011;9760;50.944;5.304;2023-06-19T11:12:20;9.00;;;5.57;;
19251;SDS011;9760;50.944;5.304;2023-06-19T11:14:47;10.20;;;5.53;;
19251;SDS011;9760;50.944;5.304;2023-06-19T11:17:16;8.23;;;5.10;;
19251;SDS011;9760;50.944;5.304;2023-06-19T11:19:49;8.63;;;5.37;;
19251;SDS011;9760;50.944;5.304;2023-06-19T11:22:17;9.33;;;5.53;;
19251;SDS011;9760;50.944;5.304;2023-06-19T11:24:46;10.77;;;5.27;;
19251;SDS011;9760;50.944;5.304;2023-06-19T11:27:16;9.40;;;5.50;;
19251;SDS011;9760;50.944;5.304;2023-06-19T11:29:43;10.57;;;5.70;;
19251;SDS011;9760;50.944;5.304;2023-06-19T11:32:11;10.07;;;5.67;;
19251;SDS011;9760;50.944;5.304;2023-06-19T11:34:38;7.97;;;5.23;;
19251;SDS011;9760;50.944;5.304;2023-06-19T11:37:13;11.57;;;5.10;;
19251;SDS011;9760;50.944;5.304;2023-06-19T11:39:40;10.50;;;4.97;;
19251;SDS011;9760;50.944;5.304;2023-06-19T11:42:06;10.20;;;5.97;;
19251;SDS011;9760;50.944;5.304;2023-06-19T11:44:33;7.80;;;5.57;;
19251;SDS011;9760;50.944;5.304;2023-06-19T11:46:59;16.40;;;5.43;;
19251;SDS011;9760;50.944;5.304;2023-06-19T11:49:25;11.77;;;5.03;;
19251;SDS011;9760;50.944;5.304;2023-06-19T11:51:51;11.17;;;5.77;;
19251;SDS011;9760;50.944;5.304;2023-06-19T11:54:17;12.67;;;5.23;;
19251;SDS011;9760;50.944;5.304;2023-06-19T11:56:48;9.27;;;5.43;;
19251;SDS011;9760;50.944;5.304;2023-06-19T11:59:14;9.10;;;5.10;;
19251;SDS011;9760;50.944;5.304;2023-06-19T12:01:40;10.77;;;5.77;;
19251;SDS011;9760;50.944;5.304;2023-06-19T12:04:06;9.07;;;4.90;;
19251;SDS011;9760;50.944;5.304;2023-06-19T12:06:32;10.93;;;5.77;;
19251;SDS011;9760;50.944;5.304;2023-06-19T12:09:00;9.50;;;5.80;;
19251;SDS011;9760;50.944;5.304;2023-06-19T12:11:26;11.67;;;5.10;;
19251;SDS011;9760;50.944;5.304;2023-06-19T12:13:51;8.57;;;5.13;;
19251;SDS011;9760;50.944;5.304;2023-06-19T12:16:18;12.40;;;5.50;;
19251;SDS011;9760;50.944;5.304;2023-06-19T12:18:44;9.60;;;5.40;;
19251;SDS011;9760;50.944;5.304;2023-06-19T12:21:09;14.40;;;5.70;;
19251;SDS011;9760;50.944;5.304;2023-06-19T12:23:35;10.33;;;4.27;;
19251;SDS011;9760;50.944;5.304;2023-06-19T12:26:01;12.20;;;5.83;;
19251;SDS011;9760;50.944;5.304;2023-06-19T12:28:26;14.70;;;5.17;;
19251;SDS011;9760;50.944;5.304;2023-06-19T12:30:52;10.83;;;6.47;;
19251;SDS011;9760;50.944;5.304;2023-06-19T12:33:19;10.80;;;6.53;;
19251;SDS011;9760;50.944;5.304;2023-06-19T12:35:47;12.53;;;5.40;;
19251;SDS011;9760;50.944;5.304;2023-06-19T12:38:14;8.23;;;5.00;;
19251;SDS011;9760;50.944;5.304;2023-06-19T12:40:39;7.00;;;5.03;;
19251;SDS011;9760;50.944;5.304;2023-06-19T12:43:06;9.17;;;4.90;;
19251;SDS011;9760;50.944;5.304;2023-06-19T12:45:32;11.13;;;5.03;;
19251;SDS011;9760;50.944;5.304;2023-06-19T12:47:58;12.70;;;4.90;;
19251;SDS011;9760;50.944;5.304;2023-06-19T12:50:24;9.47;;;5.43;;
19251;SDS011;9760;50.944;5.304;2023-06-19T12:52:50;10.87;;;4.90;;
19251;SDS011;9760;50.944;5.304;2023-06-19T12:55:16;8.80;;;4.90;;
19251;SDS011;9760;50.944;5.304;2023-06-19T12:57:41;9.90;;;5.00;;
19251;SDS011;9760;50.944;5.304;2023-06-19T13:00:09;8.50;;;4.60;;
19251;SDS011;9760;50.944;5.304;2023-06-19T13:02:37;10.17;;;5.03;;
19251;SDS011;9760;50.944;5.304;2023-06-19T13:05:04;7.53;;;4.97;;
19251;SDS011;9760;50.944;5.304;2023-06-19T13:07:30;9.20;;;5.17;;
19251;SDS011;9760;50.944;5.304;2023-06-19T13:09:56;8.67;;;5.07;;
19251;SDS011;9760;50.944;5.304;2023-06-19T13:12:22;10.53;;;4.57;;
19251;SDS011;9760;50.944;5.304;2023-06-19T13:14:48;7.73;;;4.40;;
19251;SDS011;9760;50.944;5.304;2023-06-19T13:17:14;8.70;;;5.00;;
19251;SDS011;9760;50.944;5.304;2023-06-19T13:19:39;7.57;;;4.43;;
19251;SDS011;9760;50.944;5.304;2023-06-19T13:22:05;7.20;;;4.63;;
19251;SDS011;9760;50.944;5.304;2023-06-19T13:24:31;7.47;;;4.53;;
19251;SDS011;9760;50.944;5.304;2023-06-19T13:26:57;11.43;;;4.90;;
19251;SDS011;9760;50.944;5.304;2023-06-19T13:29:23;7.93;;;4.80;;
19251;SDS011;9760;50.944;5.304;2023-06-19T13:31:48;7.23;;;4.33;;
19251;SDS011;9760;50.944;5.304;2023-06-19T13:34:14;7.97;;;4.50;;
19251;SDS011;9760;50.944;5.304;2023-06-19T13:36:40;13.00;;;3.90;;
19251;SDS011;9760;50.944;5.304;2023-06-19T13:39:05;7.50;;;4.20;;
19251;SDS011;9760;50.944;5.304;2023-06-19T13:41:31;7.50;;;4.10;;
19251;SDS011;9760;50.944;5.304;2023-06-19T13:44:00;4.80;;;3.80;;
19251;SDS011;9760;50.944;5.304;2023-06-19T13:46:26;8.33;;;4.47;;
19251;SDS011;9760;50.944;5.304;2023-06-19T13:48:52;8.73;;;5.07;;
19251;SDS011;9760;50.944;5.304;2023-06-19T13:51:19;5.63;;;3.87;;
19251;SDS011;9760;50.944;5.304;2023-06-19T13:53:47;6.70;;;3.90;;
19251;SDS011;9760;50.944;5.304;2023-06-19T13:56:13;5.83;;;4.00;;
19251;SDS011;9760;50.944;5.304;2023-06-19T13:58:39;7.77;;;4.40;;
19251;SDS011;9760;50.944;5.304;2023-06-19T14:01:05;7.90;;;3.80;;
19251;SDS011;9760;50.944;5.304;2023-06-19T14:03:31;8.50;;;4.43;;
19251;SDS011;9760;50.944;5.304;2023-06-19T14:05:57;13.53;;;4.50;;
19251;SDS011;9760;50.944;5.304;2023-06-19T14:08:22;6.70;;;4.07;;
19251;SDS011;9760;50.944;5.304;2023-06-19T14:10:49;9.10;;;3.90;;
19251;SDS011;9760;50.944;5.304;2023-06-19T14:13:15;6.83;;;3.90;;
19251;SDS011;9760;50.944;5.304;2023-06-19T14:15:41;7.17;;;4.23;;
19251;SDS011;9760;50.944;5.304;2023-06-19T14:18:06;6.73;;;3.77;;
19251;SDS011;9760;50.944;5.304;2023-06-19T14:20:32;6.73;;;4.10;;
19251;SDS011;9760;50.944;5.304;2023-06-19T14:22:58;7.30;;;4.20;;
19251;SDS011;9760;50.944;5.304;2023-06-19T14:25:23;9.77;;;4.17;;
19251;SDS011;9760;50.944;5.304;2023-06-19T14:27:49;6.67;;;4.13;;
19251;SDS011;9760;50.944;5.304;2023-06-19T14:30:15;6.80;;;4.07;;
19251;SDS011;9760;50.944;5.304;2023-06-19T14:32:40;5.43;;;3.40;;
19251;SDS011;9760;50.944;5.304;2023-06-19T14:35:06;8.30;;;4.13;;
19251;SDS011;9760;50.944;5.304;2023-06-19T14:37:32;8.73;;;3.73;;
19251;SDS011;9760;50.944;5.304;2023-06-19T14:39:58;8.57;;;4.13;;
19251;SDS011;9760;50.944;5.304;2023-06-19T14:42:23;6.60;;;3.50;;
19251;SDS011;9760;50.944;5.304;2023-06-19T14:44:50;5.30;;;3.80;;
19251;SDS011;9760;50.944;5.304;2023-06-19T14:47:15;9.77;;;3.90;;
19251;SDS011;9760;50.944;5.304;2023-06-19T14:49:41;8.67;;;3.80;;
19251;SDS011;9760;50.944;5.304;2023-06-19T14:52:07;5.97;;;3.70;;
19251;SDS011;9760;50.944;5.304;2023-06-19T14:54:33;8.20;;;4.47;;